Time;durP1;ratioP1;P1;durP2;ratioP2;P2;SDS_P1;SDS_P2;PMS_P1;PMS_P2;Temp;Humidity;BMP_temperature;BMP_pressure;BME280_temperature;BME280_humidity;BME280_pressure;Samples;Min_cycle;Max_cycle;Signal;HPM_P1;HPM_P2
2023/12/25 00:01:45;;;;;;;2.40;1.67;;;11.50;99.90;;;;;;6208473;23;19973;-65
2023/12/25 00:04:32;;;;;;;1.67;0.93;;;11.60;99.90;;;;;;6208028;23;20067;-65
2023/12/25 00:07:18;;;;;;;2.47;1.02;;;11.50;99.90;;;;;;6210254;23;20091;-65
2023/12/25 00:10:04;;;;;;;2.00;1.33;;;11.50;99.90;;;;;;6209791;23;20020;-65
2023/12/25 00:12:50;;;;;;;1.63;1.08;;;11.50;99.90;;;;;;6210718;23;20021;-65
2023/12/25 00:15:36;;;;;;;1.50;1.05;;;11.50;99.90;;;;;;6208440;23;20381;-65
2023/12/25 00:18:22;;;;;;;2.83;1.38;;;11.40;99.90;;;;;;6210018;23;20005;-66
2023/12/25 00:21:08;;;;;;;1.40;1.10;;;11.50;99.90;;;;;;6208377;23;20020;-67
2023/12/25 00:23:54;;;;;;;1.60;0.88;;;11.40;99.90;;;;;;6210025;23;20008;-67
2023/12/25 00:26:40;;;;;;;2.72;0.80;;;11.40;99.90;;;;;;6210446;23;20012;-66
2023/12/25 00:29:26;;;;;;;3.38;0.88;;;11.40;99.90;;;;;;6210283;23;20460;-66
2023/12/25 00:32:12;;;;;;;2.55;0.90;;;11.30;99.90;;;;;;6210300;23;20438;-66
2023/12/25 00:34:58;;;;;;;4.03;1.70;;;11.30;99.90;;;;;;6209665;23;20389;-66
2023/12/25 00:37:44;;;;;;;2.13;1.20;;;11.30;99.90;;;;;;6210148;23;20085;-67
2023/12/25 00:40:30;;;;;;;1.83;1.02;;;11.30;99.90;;;;;;6209095;23;20095;-66
2023/12/25 00:43:16;;;;;;;2.35;1.08;;;11.20;99.90;;;;;;6208392;23;20103;-66
2023/12/25 00:46:05;;;;;;;2.83;1.45;;;11.30;99.90;;;;;;6210010;23;20011;-67
2023/12/25 00:48:52;;;;;;;2.63;1.02;;;11.20;99.90;;;;;;6211659;23;20058;-66
2023/12/25 00:51:38;;;;;;;2.80;1.40;;;11.30;99.90;;;;;;6212636;23;20391;-66
2023/12/25 00:54:26;;;;;;;2.40;1.23;;;11.30;99.90;;;;;;6211624;23;20016;-67
2023/12/25 00:57:12;;;;;;;5.55;1.50;;;11.30;99.90;;;;;;6191215;23;20013;-67
2023/12/25 00:59:58;;;;;;;3.22;1.70;;;11.30;99.90;;;;;;6209966;23;20018;-66
2023/12/25 01:02:44;;;;;;;2.60;1.10;;;11.30;99.90;;;;;;6211322;23;20038;-66
2023/12/25 01:05:30;;;;;;;2.65;1.40;;;11.40;99.90;;;;;;6211786;23;20008;-67
2023/12/25 01:08:15;;;;;;;3.20;1.20;;;11.40;99.90;;;;;;6209961;23;20024;-67
2023/12/25 01:11:02;;;;;;;5.00;1.20;;;11.40;99.90;;;;;;6212201;23;20016;-66
2023/12/25 01:13:48;;;;;;;3.78;1.38;;;11.40;99.90;;;;;;6210755;23;20353;-67
2023/12/25 01:16:35;;;;;;;2.25;1.20;;;11.50;99.90;;;;;;6210097;23;20464;-67
2023/12/25 01:19:21;;;;;;;2.70;1.40;;;11.40;99.90;;;;;;6210942;23;20005;-67
2023/12/25 01:22:07;;;;;;;5.05;2.25;;;11.40;99.90;;;;;;6211518;23;20052;-67
2023/12/25 01:24:53;;;;;;;4.75;1.80;;;11.50;99.90;;;;;;6213415;23;20008;-67
2023/12/25 01:27:41;;;;;;;3.78;1.38;;;11.40;99.90;;;;;;6210816;23;20017;-66
2023/12/25 01:30:27;;;;;;;2.80;1.20;;;11.50;99.90;;;;;;6211670;23;20544;-66
2023/12/25 01:33:13;;;;;;;3.38;1.40;;;11.50;99.90;;;;;;6212290;23;20047;-65
2023/12/25 01:35:59;;;;;;;2.33;1.30;;;11.50;99.90;;;;;;6188299;23;20098;-66
2023/12/25 01:38:45;;;;;;;6.38;1.90;;;11.50;99.90;;;;;;6211994;23;20016;-66
2023/12/25 01:41:31;;;;;;;3.67;1.25;;;11.50;99.90;;;;;;6189537;23;20039;-66
2023/12/25 01:44:17;;;;;;;4.72;2.10;;;11.50;99.90;;;;;;6211722;23;20005;-65
2023/12/25 01:47:03;;;;;;;2.40;1.30;;;11.50;99.90;;;;;;6210590;23;20047;-66
2023/12/25 01:49:49;;;;;;;3.45;1.70;;;11.50;99.90;;;;;;6210654;23;20457;-66
2023/12/25 01:52:35;;;;;;;6.18;1.63;;;11.50;99.90;;;;;;6208730;23;20012;-66
2023/12/25 01:55:21;;;;;;;2.88;1.17;;;11.60;99.90;;;;;;6211397;23;20393;-66
2023/12/25 01:58:07;;;;;;;4.18;1.70;;;11.60;99.90;;;;;;6189436;23;20043;-66
2023/12/25 02:00:53;;;;;;;3.88;1.70;;;11.60;99.90;;;;;;6211774;23;20032;-65
2023/12/25 02:03:39;;;;;;;3.05;1.20;;;11.60;99.90;;;;;;6211692;23;20067;-65
2023/12/25 02:06:27;;;;;;;3.03;1.38;;;11.60;99.90;;;;;;6210580;23;20017;-65
2023/12/25 02:09:13;;;;;;;2.85;1.42;;;11.60;99.90;;;;;;6210863;23;20019;-65
2023/12/25 02:11:59;;;;;;;3.63;1.30;;;11.60;99.90;;;;;;6211133;23;20409;-65
2023/12/25 02:14:45;;;;;;;2.13;1.10;;;11.70;99.90;;;;;;6210642;23;20013;-66
2023/12/25 02:17:32;;;;;;;2.78;1.10;;;11.70;99.90;;;;;;6211678;23;20013;-66
2023/12/25 02:20:19;;;;;;;3.22;1.10;;;11.60;99.90;;;;;;6207285;23;20515;-67
2023/12/25 02:23:10;;;;;;;3.53;1.35;;;11.70;99.90;;;;;;6210059;23;20397;-66
2023/12/25 02:25:58;;;;;;;3.40;1.63;;;11.60;99.90;;;;;;6210680;23;20345;-66
2023/12/25 02:28:44;;;;;;;4.95;1.80;;;11.70;99.90;;;;;;6209356;23;20385;-65
2023/12/25 02:31:30;;;;;;;3.97;1.40;;;11.60;99.90;;;;;;6211694;23;20345;-66
2023/12/25 02:34:16;;;;;;;3.10;1.50;;;11.70;99.90;;;;;;6212655;23;20514;-65
2023/12/25 02:37:02;;;;;;;5.22;1.42;;;11.70;99.90;;;;;;6210401;23;20009;-65
2023/12/25 02:39:48;;;;;;;3.78;1.48;;;11.70;99.90;;;;;;6207877;23;20009;-65
2023/12/25 02:42:34;;;;;;;4.25;1.48;;;11.70;99.90;;;;;;6210405;23;20008;-65
2023/12/25 02:45:20;;;;;;;4.82;2.13;;;11.70;99.90;;;;;;6211197;23;20012;-65
2023/12/25 02:48:06;;;;;;;3.92;1.13;;;11.70;99.90;;;;;;6210925;23;20074;-65
2023/12/25 02:50:52;;;;;;;5.93;1.30;;;11.70;99.90;;;;;;6209758;23;20009;-65
2023/12/25 02:53:38;;;;;;;2.40;1.27;;;11.70;99.90;;;;;;6211558;23;20009;-65
2023/12/25 02:56:24;;;;;;;1.67;1.08;;;11.70;99.90;;;;;;6209710;23;20020;-66
2023/12/25 02:59:10;;;;;;;5.25;1.25;;;11.70;99.90;;;;;;6209372;23;20012;-66
2023/12/25 03:01:56;;;;;;;4.43;1.42;;;11.80;99.90;;;;;;6211392;23;20099;-66
2023/12/25 03:04:42;;;;;;;3.35;1.60;;;11.80;99.90;;;;;;6209601;23;20009;-67
2023/12/25 03:07:28;;;;;;;2.13;1.35;;;11.70;99.90;;;;;;6210334;23;20013;-66
2023/12/25 03:10:14;;;;;;;2.50;1.30;;;11.80;99.90;;;;;;6187778;23;20021;-66
2023/12/25 03:13:00;;;;;;;3.75;1.60;;;11.80;99.90;;;;;;6210470;23;20396;-64
2023/12/25 03:15:46;;;;;;;2.55;1.30;;;11.70;99.90;;;;;;6206986;23;20472;-66
2023/12/25 03:18:32;;;;;;;2.50;1.13;;;11.80;99.90;;;;;;6209565;23;20034;-66
2023/12/25 03:21:18;;;;;;;2.95;1.20;;;11.80;99.90;;;;;;6209837;23;20032;-66
2023/12/25 03:24:04;;;;;;;3.33;1.33;;;11.80;99.90;;;;;;6211059;23;20005;-66
2023/12/25 03:26:50;;;;;;;3.42;1.75;;;11.80;99.90;;;;;;6210730;23;20091;-65
2023/12/25 03:29:36;;;;;;;3.47;1.20;;;11.80;99.90;;;;;;6210178;23;20062;-66
2023/12/25 03:32:22;;;;;;;2.10;1.13;;;11.70;99.90;;;;;;6210226;23;20017;-66
2023/12/25 03:35:08;;;;;;;4.38;1.20;;;11.70;99.90;;;;;;6207787;23;20012;-66
2023/12/25 03:37:54;;;;;;;3.47;1.48;;;11.70;99.90;;;;;;6210599;23;20382;-65
2023/12/25 03:40:40;;;;;;;1.20;0.90;;;11.70;99.90;;;;;;6210236;23;20043;-65
2023/12/25 03:43:26;;;;;;;3.00;1.48;;;11.70;99.90;;;;;;6210618;23;20005;-65
2023/12/25 03:46:12;;;;;;;2.70;1.38;;;11.60;99.90;;;;;;6211311;23;20012;-66
2023/12/25 03:48:58;;;;;;;2.03;1.10;;;11.60;99.90;;;;;;6209323;23;20448;-66
2023/12/25 03:51:44;;;;;;;2.40;1.25;;;11.60;99.90;;;;;;6210256;23;20032;-66
2023/12/25 03:54:30;;;;;;;1.85;0.93;;;11.60;99.90;;;;;;6209362;23;20029;-67
2023/12/25 03:57:16;;;;;;;2.70;1.23;;;11.60;99.90;;;;;;6210669;23;20051;-66
2023/12/25 04:00:03;;;;;;;4.70;1.20;;;11.60;99.90;;;;;;6209260;23;20012;-64
2023/12/25 04:02:50;;;;;;;2.00;1.23;;;11.60;99.90;;;;;;6210255;23;20090;-65
2023/12/25 04:05:37;;;;;;;4.47;1.50;;;11.60;99.90;;;;;;6209480;23;20039;-64
2023/12/25 04:08:22;;;;;;;2.85;1.35;;;11.50;99.90;;;;;;6208808;23;20024;-65
2023/12/25 04:11:18;;;;;;;2.67;1.20;;;11.60;99.90;;;;;;6207437;23;20015;-65
2023/12/25 04:14:04;;;;;;;;;;;11.50;99.90;;;;;;6211009;23;20008;-66
2023/12/25 04:16:50;;;;;;;3.88;1.73;;;11.50;99.90;;;;;;6210346;23;19900;-66
2023/12/25 04:19:36;;;;;;;2.97;1.20;;;11.50;99.90;;;;;;6210686;23;20016;-66
2023/12/25 04:22:22;;;;;;;1.40;0.90;;;11.50;99.90;;;;;;6210633;23;20036;-64
2023/12/25 04:25:07;;;;;;;2.53;1.17;;;11.50;99.90;;;;;;6211197;23;20091;-64
2023/12/25 04:27:54;;;;;;;3.83;1.35;;;11.50;99.90;;;;;;6208759;23;20325;-64
2023/12/25 04:30:40;;;;;;;2.72;1.20;;;11.50;99.90;;;;;;6211899;23;20019;-64
2023/12/25 04:33:25;;;;;;;3.00;1.35;;;11.60;99.90;;;;;;6212347;23;20041;-64
2023/12/25 04:36:12;;;;;;;2.55;1.30;;;11.60;99.90;;;;;;6211647;23;20012;-63
2023/12/25 04:39:01;;;;;;;4.88;1.65;;;11.50;99.90;;;;;;6210290;23;20070;-64
2023/12/25 04:41:47;;;;;;;2.80;1.20;;;11.60;99.90;;;;;;6212580;23;20020;-65
2023/12/25 04:44:33;;;;;;;4.00;1.25;;;11.60;99.90;;;;;;6210159;23;20009;-64
2023/12/25 04:47:19;;;;;;;5.25;1.45;;;11.70;99.90;;;;;;6210804;23;20044;-65
2023/12/25 04:50:05;;;;;;;1.35;0.90;;;11.60;99.90;;;;;;6212146;23;20012;-64
2023/12/25 04:52:51;;;;;;;2.65;1.30;;;11.70;99.90;;;;;;6212035;23;20012;-64
2023/12/25 04:55:37;;;;;;;4.35;1.60;;;11.70;99.90;;;;;;6210408;23;20058;-64
2023/12/25 04:58:23;;;;;;;4.43;1.20;;;11.70;99.90;;;;;;6211192;23;20056;-65
2023/12/25 05:01:09;;;;;;;3.35;1.20;;;11.80;99.90;;;;;;6209756;23;20016;-64
2023/12/25 05:03:55;;;;;;;3.10;1.15;;;11.80;99.90;;;;;;6207427;23;20404;-66
2023/12/25 05:06:41;;;;;;;5.75;1.38;;;11.80;99.90;;;;;;6209552;23;20009;-64
2023/12/25 05:09:27;;;;;;;1.23;0.98;;;11.80;99.90;;;;;;6210533;23;20095;-65
2023/12/25 05:12:13;;;;;;;2.60;1.45;;;11.80;99.90;;;;;;6210799;23;20350;-65
2023/12/25 05:14:59;;;;;;;1.92;1.17;;;11.80;99.90;;;;;;6211287;23;20357;-65
2023/12/25 05:17:45;;;;;;;2.70;1.08;;;11.80;99.90;;;;;;6211621;23;20498;-66
2023/12/25 05:20:31;;;;;;;2.47;1.10;;;11.90;99.90;;;;;;6210139;23;20403;-65
2023/12/25 05:23:17;;;;;;;1.67;1.10;;;11.90;99.90;;;;;;6210177;23;20012;-63
2023/12/25 05:26:03;;;;;;;4.35;1.52;;;11.90;99.90;;;;;;6210861;23;20437;-64
2023/12/25 05:28:49;;;;;;;2.38;1.10;;;11.90;99.90;;;;;;6212091;23;20043;-65
2023/12/25 05:31:35;;;;;;;4.82;1.67;;;11.90;99.90;;;;;;6210481;23;20063;-64
2023/12/25 05:34:21;;;;;;;4.18;1.55;;;12.00;99.90;;;;;;6210786;23;20096;-64
2023/12/25 05:37:07;;;;;;;4.03;1.58;;;12.00;99.90;;;;;;6211212;23;20040;-65
2023/12/25 05:39:52;;;;;;;1.85;1.00;;;12.00;99.90;;;;;;6210121;23;20008;-65
2023/12/25 05:42:38;;;;;;;2.97;1.48;;;12.10;99.90;;;;;;6211302;23;20023;-65
2023/12/25 05:45:24;;;;;;;2.13;1.10;;;12.10;99.90;;;;;;6210544;23;20008;-65
2023/12/25 05:48:10;;;;;;;2.38;1.02;;;12.10;99.90;;;;;;6189440;23;20013;-65
2023/12/25 05:50:56;;;;;;;3.35;1.42;;;12.10;99.90;;;;;;6211420;23;20014;-65
2023/12/25 05:53:42;;;;;;;4.07;1.67;;;12.10;99.90;;;;;;6208815;23;20059;-65
2023/12/25 05:56:28;;;;;;;1.77;1.13;;;12.10;99.90;;;;;;6209617;23;20012;-66
2023/12/25 05:59:14;;;;;;;3.17;1.27;;;12.10;99.90;;;;;;6211105;23;20346;-65
2023/12/25 06:02:00;;;;;;;3.50;1.23;;;12.10;99.90;;;;;;6211526;23;20058;-65
2023/12/25 06:04:46;;;;;;;2.88;1.45;;;12.10;99.90;;;;;;6210891;23;20008;-65
2023/12/25 06:07:32;;;;;;;5.35;1.67;;;12.10;99.90;;;;;;6209841;23;20021;-65
2023/12/25 06:10:18;;;;;;;4.63;1.30;;;12.20;99.90;;;;;;6210460;23;20020;-65
2023/12/25 06:13:04;;;;;;;3.42;1.45;;;12.20;99.90;;;;;;6210878;23;20511;-65
2023/12/25 06:15:50;;;;;;;3.90;1.65;;;12.20;99.90;;;;;;6209971;23;20013;-65
2023/12/25 06:18:36;;;;;;;3.22;1.40;;;12.20;99.90;;;;;;6211173;23;20017;-65
2023/12/25 06:21:22;;;;;;;3.47;1.40;;;12.20;99.90;;;;;;6210200;23;20396;-68
2023/12/25 06:24:08;;;;;;;4.55;1.40;;;12.20;99.90;;;;;;6211028;23;20063;-67
2023/12/25 06:26:54;;;;;;;2.60;1.10;;;12.20;99.90;;;;;;6208612;23;20009;-67
2023/12/25 06:29:40;;;;;;;2.67;1.20;;;12.10;99.90;;;;;;6210439;23;20009;-67
2023/12/25 06:32:26;;;;;;;3.80;1.45;;;12.10;99.90;;;;;;6210011;23;20332;-66
2023/12/25 06:35:12;;;;;;;3.70;1.20;;;12.20;99.90;;;;;;6209904;23;20016;-66
2023/12/25 06:37:58;;;;;;;4.30;1.50;;;12.10;99.90;;;;;;6210595;23;20016;-66
2023/12/25 06:40:44;;;;;;;2.63;1.40;;;12.20;99.90;;;;;;6209988;23;20107;-66
2023/12/25 06:43:30;;;;;;;3.00;1.50;;;12.10;99.90;;;;;;6207930;23;20009;-65
2023/12/25 06:46:16;;;;;;;3.47;1.42;;;12.20;99.90;;;;;;6210248;23;20023;-66
2023/12/25 06:49:01;;;;;;;3.92;1.30;;;12.10;99.90;;;;;;6210483;23;20005;-67
2023/12/25 06:51:47;;;;;;;3.45;1.50;;;12.20;99.90;;;;;;6209228;23;20009;-65
2023/12/25 06:54:34;;;;;;;5.03;2.10;;;12.20;99.90;;;;;;6210176;23;20011;-67
2023/12/25 06:57:20;;;;;;;1.95;1.17;;;12.20;99.90;;;;;;6209351;23;20397;-67
2023/12/25 07:00:06;;;;;;;5.93;1.50;;;12.20;99.90;;;;;;6211175;23;20011;-64
2023/12/25 07:02:52;;;;;;;2.80;1.60;;;12.20;99.90;;;;;;6206750;23;20013;-68
2023/12/25 07:05:40;;;;;;;2.20;1.25;;;12.20;99.90;;;;;;6209954;23;20020;-67
2023/12/25 07:08:27;;;;;;;5.30;1.50;;;12.20;99.90;;;;;;6210224;23;20099;-65
2023/12/25 07:11:13;;;;;;;3.05;1.10;;;12.20;99.90;;;;;;6210563;23;20449;-67
2023/12/25 07:13:59;;;;;;;2.33;1.30;;;12.20;99.90;;;;;;6210494;23;20008;-66
2023/12/25 07:16:45;;;;;;;4.28;1.52;;;12.20;99.90;;;;;;6211098;23;20015;-66
2023/12/25 07:19:31;;;;;;;4.47;1.30;;;12.20;99.90;;;;;;6210965;23;20031;-66
2023/12/25 07:22:17;;;;;;;2.55;1.15;;;12.20;99.90;;;;;;6210619;23;20013;-66
2023/12/25 07:25:06;;;;;;;2.80;1.40;;;12.20;99.90;;;;;;6209463;23;20004;-66
2023/12/25 07:27:51;;;;;;;4.22;1.25;;;12.20;99.90;;;;;;6208943;23;20017;-66
2023/12/25 07:30:38;;;;;;;3.80;1.63;;;12.20;99.90;;;;;;6208929;23;20008;-66
2023/12/25 07:33:24;;;;;;;1.92;1.15;;;12.20;99.90;;;;;;6210371;23;20092;-68
2023/12/25 07:36:09;;;;;;;2.45;1.20;;;12.20;99.90;;;;;;6209657;23;20032;-66
2023/12/25 07:38:55;;;;;;;3.15;1.40;;;12.20;99.90;;;;;;6210349;23;20559;-66
2023/12/25 07:41:45;;;;;;;3.55;1.52;;;12.20;99.90;;;;;;6210698;23;20078;-66
2023/12/25 07:44:31;;;;;;;3.88;1.58;;;12.20;99.90;;;;;;6210775;23;20016;-66
2023/12/25 07:47:17;;;;;;;3.80;1.35;;;12.20;99.90;;;;;;6209844;23;20236;-66
2023/12/25 07:50:04;;;;;;;3.00;1.38;;;12.20;99.90;;;;;;6209452;23;20384;-66
2023/12/25 07:52:50;;;;;;;3.05;1.80;;;12.20;99.90;;;;;;6209783;23;20013;-66
2023/12/25 07:55:38;;;;;;;3.40;1.58;;;12.20;99.90;;;;;;6208715;23;20044;-67
2023/12/25 07:58:24;;;;;;;2.17;1.20;;;12.20;99.90;;;;;;6210004;23;20419;-66
2023/12/25 08:01:12;;;;;;;5.35;1.25;;;12.20;99.90;;;;;;6208337;23;20042;-66
2023/12/25 08:03:58;;;;;;;4.70;1.70;;;12.20;99.90;;;;;;6208286;23;20015;-66
2023/12/25 08:06:44;;;;;;;6.75;1.45;;;12.20;99.90;;;;;;6209174;23;20047;-67
2023/12/25 08:09:30;;;;;;;3.05;1.38;;;12.20;99.90;;;;;;6207756;23;20095;-66
2023/12/25 08:12:16;;;;;;;5.95;1.52;;;12.20;99.90;;;;;;6208472;23;20016;-66
2023/12/25 08:15:02;;;;;;;5.80;1.20;;;12.20;99.90;;;;;;6208112;23;20019;-67
2023/12/25 08:17:48;;;;;;;3.80;1.27;;;12.20;99.90;;;;;;6209306;23;20013;-66
2023/12/25 08:20:34;;;;;;;3.30;1.65;;;12.20;99.90;;;;;;6209708;23;20016;-66
2023/12/25 08:23:20;;;;;;;2.03;1.45;;;12.20;99.90;;;;;;6208018;23;20460;-67
2023/12/25 08:26:06;;;;;;;3.53;1.60;;;12.30;99.90;;;;;;6208405;23;20013;-67
2023/12/25 08:28:52;;;;;;;3.63;1.45;;;12.20;99.90;;;;;;6209373;23;20040;-67
2023/12/25 08:31:39;;;;;;;4.07;1.33;;;12.20;99.90;;;;;;6209287;23;20004;-67
2023/12/25 08:34:25;;;;;;;5.80;1.20;;;12.20;99.90;;;;;;6207765;23;20090;-66
2023/12/25 08:37:11;;;;;;;2.65;1.25;;;12.20;99.90;;;;;;6209787;23;20441;-67
2023/12/25 08:39:57;;;;;;;1.88;0.82;;;12.20;99.90;;;;;;6209262;23;20009;-67
2023/12/25 08:42:43;;;;;;;2.00;0.80;;;12.20;99.90;;;;;;6210333;23;20035;-67
2023/12/25 08:45:29;;;;;;;6.32;1.52;;;12.20;99.90;;;;;;6210720;23;20000;-66
2023/12/25 08:48:15;;;;;;;2.25;1.33;;;12.20;99.90;;;;;;6209155;23;20013;-66
2023/12/25 08:51:01;;;;;;;5.15;1.30;;;12.20;99.90;;;;;;6209077;23;20005;-68
2023/12/25 08:53:46;;;;;;;4.97;1.65;;;12.20;99.90;;;;;;6208908;23;20020;-67
2023/12/25 08:56:32;;;;;;;3.05;1.13;;;12.20;99.90;;;;;;6209743;23;20087;-67
2023/12/25 08:59:18;;;;;;;4.85;2.20;;;12.20;99.90;;;;;;6209504;23;20031;-66
2023/12/25 09:02:04;;;;;;;3.80;1.40;;;12.20;99.90;;;;;;6208201;23;20024;-68
2023/12/25 09:04:50;;;;;;;5.70;1.45;;;12.20;99.90;;;;;;6208020;23;20016;-70
2023/12/25 09:07:36;;;;;;;3.75;1.63;;;12.20;99.90;;;;;;6208144;23;20429;-69
2023/12/25 09:10:22;;;;;;;5.20;1.45;;;12.20;99.90;;;;;;6205239;23;20018;-69
2023/12/25 09:13:08;;;;;;;3.28;1.40;;;12.30;99.90;;;;;;6211451;23;20020;-69
2023/12/25 09:15:54;;;;;;;5.97;2.00;;;12.30;99.90;;;;;;6210822;23;20005;-69
2023/12/25 09:18:40;;;;;;;4.57;1.80;;;12.30;99.90;;;;;;6210101;23;20020;-69
2023/12/25 09:21:26;;;;;;;2.85;1.30;;;12.30;99.90;;;;;;6210048;23;20016;-69
2023/12/25 09:24:12;;;;;;;5.10;1.92;;;12.30;99.90;;;;;;6210719;23;20016;-68
2023/12/25 09:26:58;;;;;;;3.53;1.50;;;12.40;99.90;;;;;;6210975;23;20009;-69
2023/12/25 09:29:44;;;;;;;4.90;2.05;;;12.40;99.90;;;;;;6189668;23;20044;-69
2023/12/25 09:32:30;;;;;;;7.15;1.92;;;12.30;99.90;;;;;;6212387;23;20008;-69
2023/12/25 09:35:18;;;;;;;4.13;1.58;;;12.30;99.90;;;;;;6210526;23;20087;-69
2023/12/25 09:38:04;;;;;;;4.45;1.80;;;12.40;99.90;;;;;;6210733;23;20008;-68
2023/12/25 09:40:50;;;;;;;4.93;1.58;;;12.40;99.90;;;;;;6209576;23;20397;-68
2023/12/25 09:43:41;;;;;;;4.63;1.60;;;12.40;99.90;;;;;;6211309;23;20013;-69
2023/12/25 09:46:31;;;;;;;6.88;1.50;;;12.30;99.90;;;;;;6191225;23;20008;-69
2023/12/25 09:49:18;;;;;;;4.68;1.30;;;12.30;99.90;;;;;;6209951;23;20431;-69
2023/12/25 09:52:05;;;;;;;7.03;1.90;;;12.30;99.90;;;;;;6191391;23;20008;-68
2023/12/25 09:54:51;;;;;;;3.35;1.73;;;12.30;99.90;;;;;;6207910;23;20016;-68
2023/12/25 09:57:38;;;;;;;3.70;1.70;;;12.30;99.90;;;;;;6212393;23;20013;-69
2023/12/25 10:00:25;;;;;;;3.40;1.80;;;12.30;99.90;;;;;;6208846;23;20020;-69
2023/12/25 10:03:11;;;;;;;4.10;1.40;;;12.30;99.90;;;;;;6211319;23;20013;-69
2023/12/25 10:05:57;;;;;;;3.45;1.60;;;12.40;99.90;;;;;;6211189;23;20059;-69
2023/12/25 10:08:43;;;;;;;8.15;2.47;;;12.40;99.90;;;;;;6208160;23;20043;-70
2023/12/25 10:11:29;;;;;;;3.55;1.40;;;12.40;99.90;;;;;;6210378;23;20011;-70
2023/12/25 10:14:15;;;;;;;3.38;1.27;;;12.40;99.90;;;;;;6211491;23;20365;-70
2023/12/25 10:17:02;;;;;;;3.05;1.33;;;12.40;99.90;;;;;;6211736;23;20465;-70
2023/12/25 10:19:52;;;;;;;4.38;1.77;;;12.40;99.90;;;;;;6209634;23;20047;-70
2023/12/25 10:22:38;;;;;;;6.22;1.73;;;12.50;99.90;;;;;;6211657;23;20047;-71
2023/12/25 10:25:27;;;;;;;5.18;1.55;;;12.50;99.90;;;;;;6210281;23;20493;-70
2023/12/25 10:28:13;;;;;;;5.38;2.35;;;12.50;99.90;;;;;;6209196;23;20043;-70
2023/12/25 10:31:01;;;;;;;4.75;1.45;;;12.40;99.90;;;;;;6209660;23;20015;-70
2023/12/25 10:34:01;;;;;;;4.90;2.00;;;12.50;99.90;;;;;;6210723;23;20012;-70
2023/12/25 10:36:49;;;;;;;5.03;2.15;;;12.60;99.90;;;;;;6210602;23;20044;-70
2023/12/25 10:39:35;;;;;;;4.18;2.13;;;12.60;99.90;;;;;;6209545;23;20013;-70
2023/12/25 10:42:22;;;;;;;2.63;1.30;;;12.50;99.90;;;;;;6209001;23;20449;-69
2023/12/25 10:45:09;;;;;;;4.30;1.83;;;12.60;99.90;;;;;;6191057;23;20099;-70
2023/12/25 10:47:56;;;;;;;5.45;1.70;;;12.60;99.90;;;;;;6210008;23;20397;-70
2023/12/25 10:50:45;;;;;;;3.42;1.42;;;12.60;99.90;;;;;;6211073;23;20040;-70
2023/12/25 10:53:31;;;;;;;5.68;1.70;;;12.60;99.90;;;;;;6210579;23;20100;-70
2023/12/25 10:56:22;;;;;;;3.20;1.83;;;12.60;99.90;;;;;;6209218;23;20035;-69
2023/12/25 10:59:41;;;;;;;5.55;1.60;;;12.60;99.90;;;;;;6209255;23;20480;-68
2023/12/25 11:02:28;;;;;;;7.03;2.00;;;12.60;99.90;;;;;;6089119;23;20026;-70
2023/12/25 11:05:14;;;;;;;3.20;1.60;;;12.60;99.90;;;;;;6089569;23;20014;-68
2023/12/25 11:08:00;;;;;;;3.42;1.63;;;12.70;99.90;;;;;;6089308;23;20113;-65
2023/12/25 11:10:46;;;;;;;2.53;1.60;;;12.70;99.80;;;;;;6089386;23;20054;-67
2023/12/25 11:13:32;;;;;;;3.33;1.88;;;12.80;99.90;;;;;;6090091;23;20442;-68
2023/12/25 11:16:18;;;;;;;3.17;1.73;;;12.80;99.90;;;;;;6089598;23;20087;-67
2023/12/25 11:19:05;;;;;;;12.25;3.08;;;12.80;99.80;;;;;;6090540;23;20024;-67
2023/12/25 11:21:51;;;;;;;2.83;1.10;;;12.80;99.80;;;;;;6089229;23;20443;-67
2023/12/25 11:24:38;;;;;;;5.38;1.98;;;12.90;99.80;;;;;;6088094;23;20041;-68
2023/12/25 11:27:26;;;;;;;4.38;1.60;;;12.80;99.70;;;;;;6089677;23;20015;-67
2023/12/25 11:30:13;;;;;;;2.65;1.42;;;12.90;99.60;;;;;;6087772;23;20425;-67
2023/12/25 11:33:00;;;;;;;3.30;1.48;;;12.90;99.70;;;;;;6090232;23;20046;-67
2023/12/25 11:35:47;;;;;;;4.15;1.80;;;12.90;99.60;;;;;;6088544;23;20017;-67
2023/12/25 11:38:33;;;;;;;7.35;2.25;;;12.90;99.60;;;;;;6164982;23;20086;-67
2023/12/25 11:41:19;;;;;;;3.90;1.60;;;13.00;99.60;;;;;;6180256;23;20134;-67
2023/12/25 11:44:06;;;;;;;4.68;2.05;;;13.00;99.50;;;;;;6179884;23;20065;-67
2023/12/25 11:46:57;;;;;;;5.97;1.48;;;13.00;99.40;;;;;;6179413;23;20035;-67
2023/12/25 11:49:43;;;;;;;4.38;1.50;;;13.00;99.30;;;;;;6180233;23;20044;-67
2023/12/25 11:52:55;;;;;;;2.55;1.23;;;13.00;99.30;;;;;;6179598;23;20037;-68
2023/12/25 11:55:42;;;;;;;4.63;1.70;;;13.10;99.50;;;;;;6177087;23;20021;-67
2023/12/25 11:58:30;;;;;;;2.85;1.70;;;13.10;99.30;;;;;;6179983;23;20387;-67
2023/12/25 12:01:17;;;;;;;3.53;2.25;;;13.20;99.00;;;;;;6180121;23;20080;-67
2023/12/25 12:04:04;;;;;;;3.03;1.70;;;13.10;99.10;;;;;;6177323;23;20041;-67
2023/12/25 12:06:51;;;;;;;3.30;1.27;;;13.10;99.10;;;;;;6179518;23;20010;-67
2023/12/25 12:09:37;;;;;;;4.15;1.35;;;13.10;99.10;;;;;;6203813;23;20397;-68
2023/12/25 12:12:22;;;;;;;5.15;1.77;;;13.10;99.00;;;;;;6210130;23;20461;-67
2023/12/25 12:15:09;;;;;;;5.90;2.38;;;13.10;99.10;;;;;;6209945;23;20079;-66
2023/12/25 12:17:56;;;;;;;3.15;1.75;;;13.20;99.00;;;;;;6209382;23;20011;-67
2023/12/25 12:20:42;;;;;;;5.05;1.70;;;13.20;99.10;;;;;;6188336;23;20090;-66
2023/12/25 12:23:31;;;;;;;4.15;1.67;;;13.10;99.00;;;;;;6207712;23;20024;-69
2023/12/25 12:26:17;;;;;;;6.15;2.55;;;13.20;99.10;;;;;;6207936;23;20013;-68
2023/12/25 12:29:03;;;;;;;5.93;1.73;;;13.10;99.10;;;;;;6189126;23;20008;-69
2023/12/25 12:31:49;;;;;;;3.42;1.83;;;13.10;99.10;;;;;;6208915;23;20024;-68
2023/12/25 12:34:35;;;;;;;4.82;1.80;;;13.10;99.00;;;;;;6210654;23;20457;-68
2023/12/25 12:37:21;;;;;;;5.00;1.70;;;13.10;99.00;;;;;;6208778;23;20012;-68
2023/12/25 12:40:07;;;;;;;6.65;1.95;;;13.10;99.00;;;;;;6209781;23;20013;-68
2023/12/25 12:42:54;;;;;;;4.50;1.65;;;13.10;98.90;;;;;;6208748;23;20441;-68
2023/12/25 12:45:39;;;;;;;4.85;1.67;;;13.10;99.00;;;;;;6210260;23;20439;-68
2023/12/25 12:48:25;;;;;;;5.47;1.67;;;13.00;98.80;;;;;;6212602;23;20052;-70
2023/12/25 12:51:11;;;;;;;5.18;1.80;;;13.00;98.80;;;;;;6211136;23;20008;-69
2023/12/25 12:53:57;;;;;;;5.00;2.50;;;13.00;98.70;;;;;;6211393;23;20012;-66
2023/12/25 12:56:43;;;;;;;3.78;1.38;;;13.10;98.90;;;;;;6212392;23;20067;-66
2023/12/25 12:59:30;;;;;;;5.47;1.85;;;13.10;98.80;;;;;;6211633;23;20017;-66
2023/12/25 13:02:16;;;;;;;5.40;2.05;;;13.10;98.80;;;;;;6211207;23;20481;-66
2023/12/25 13:05:02;;;;;;;4.15;1.60;;;13.20;98.80;;;;;;6211346;23;20066;-66
2023/12/25 13:07:48;;;;;;;6.50;2.25;;;13.20;98.90;;;;;;6209161;23;20016;-65
2023/12/25 13:10:34;;;;;;;3.85;1.40;;;13.20;98.90;;;;;;6208352;23;20442;-66
2023/12/25 13:13:20;;;;;;;4.35;2.00;;;13.20;98.90;;;;;;6210564;23;20507;-66
2023/12/25 13:16:07;;;;;;;10.60;2.22;;;13.20;98.80;;;;;;6212729;23;20013;-66
2023/12/25 13:18:53;;;;;;;4.93;1.70;;;13.20;98.70;;;;;;6189529;23;20036;-67
2023/12/25 13:21:39;;;;;;;5.93;1.90;;;13.20;98.60;;;;;;6210610;23;20021;-67
2023/12/25 13:24:25;;;;;;;6.00;1.88;;;13.20;98.70;;;;;;6189786;23;20019;-67
2023/12/25 13:27:12;;;;;;;5.50;1.95;;;13.20;98.70;;;;;;6210962;23;20009;-67
2023/12/25 13:29:58;;;;;;;3.38;1.70;;;13.10;98.60;;;;;;6210274;23;20009;-66
2023/12/25 13:32:44;;;;;;;6.50;2.20;;;13.10;98.60;;;;;;6209213;23;20017;-67
2023/12/25 13:35:30;;;;;;;3.90;2.08;;;13.10;98.50;;;;;;6211843;23;20009;-67
2023/12/25 13:38:16;;;;;;;4.68;1.80;;;13.00;98.50;;;;;;6211067;23;20013;-67
2023/12/25 13:41:02;;;;;;;7.22;2.60;;;13.00;98.60;;;;;;6191351;23;20023;-67
2023/12/25 13:43:49;;;;;;;10.50;1.60;;;12.90;98.70;;;;;;6212483;23;20083;-67
2023/12/25 13:46:35;;;;;;;3.53;1.48;;;12.90;98.70;;;;;;6211462;23;20047;-67
2023/12/25 13:49:21;;;;;;;8.13;1.50;;;13.00;98.70;;;;;;6210102;23;20005;-67
2023/12/25 13:52:07;;;;;;;5.40;2.25;;;12.90;98.60;;;;;;6211122;23;20016;-67
2023/12/25 13:54:53;;;;;;;5.70;2.67;;;13.00;98.70;;;;;;6210847;23;20008;-67
2023/12/25 13:57:39;;;;;;;5.82;2.35;;;13.00;98.70;;;;;;6211900;23;20008;-67
2023/12/25 14:00:25;;;;;;;6.05;2.40;;;13.00;98.70;;;;;;6211118;23;20012;-67
2023/12/25 14:03:11;;;;;;;3.58;1.40;;;12.90;98.70;;;;;;6211164;23;20394;-67
2023/12/25 14:05:57;;;;;;;3.40;1.48;;;12.90;98.70;;;;;;6211678;23;20008;-68
2023/12/25 14:08:43;;;;;;;5.00;1.65;;;12.90;98.70;;;;;;6189915;23;20044;-67
2023/12/25 14:11:29;;;;;;;4.57;1.80;;;12.80;98.70;;;;;;6210660;23;20536;-67
2023/12/25 14:14:15;;;;;;;7.25;1.77;;;12.80;98.80;;;;;;6211247;23;20016;-66
2023/12/25 14:17:03;;;;;;;2.08;1.20;;;12.80;98.90;;;;;;6209862;23;20039;-66
2023/12/25 14:19:49;;;;;;;3.53;1.33;;;12.80;98.90;;;;;;6211669;23;20013;-66
2023/12/25 14:22:35;;;;;;;5.65;1.80;;;12.70;98.80;;;;;;6210920;23;20016;-66
2023/12/25 14:25:21;;;;;;;5.05;1.80;;;12.60;98.70;;;;;;6211189;23;20008;-66
2023/12/25 14:28:07;;;;;;;4.45;1.80;;;12.60;98.90;;;;;;6211068;23;20013;-67